OOCL Italy — 9V7383 — position and weather

sailwx.info

Track history (hours):
 
Tides and Currents Weather Stations Pressure Air Temp Water Temp Dewpoint Dewpoint Depression Visibility Wind Speed Wind Dir Waves Ship Positions

OOCL Italy

Last reported at 2018-Jun-18 04:58 UTC. Time now 2018-Jun-18 09:37 UTC.
Position S 27°22' E 153°11'.

Length 280 m; draft 11.3 m.

Type: Ship. MMSI: 566748000.

Date/timePositionNaut miles runAvg speedWind from/ knotsBaromVisibWave heightAir tempDewpointWater temp
2018-Jun-18 04:58S 27°22' E 153°11'0 0.0
2018-Jun-18 03:03S 27°22' E 153°11'0 0.0
2018-Jun-18 02:54S 27°22' E 153°11'0 0.0
2018-Jun-17 11:49S 27°22' E 153°11'0 0.5
2018-Jun-17 11:29S 27°22' E 153°11'3 5.9
2018-Jun-17 10:59S 27°19' E 153°12'815.3
2018-Jun-17 10:29S 27°14' E 153°19'816.2
2018-Jun-17 10:00S 27°07' E 153°20'1017.5
2018-Jun-17 09:26S 26°59' E 153°14'716.8
2018-Jun-17 09:00S 26°52' E 153°10'612.2
2018-Jun-17 08:30S 26°47' E 153°12'4 6.7
2018-Jun-17 07:58S 26°43' E 153°12'3 4.8
2018-Jun-17 07:24S 26°43' E 153°15'11 6.9
2018-Jun-17 05:52S 26°49' E 153°25'613.4
2018-Jun-17 05:26S 26°53' E 153°30'1212.6
2018-Jun-17 04:29S 27°04' E 153°35'713.8
2018-Jun-17 04:01S 27°10' E 153°38'714.0
2018-Jun-17 03:30S 27°17' E 153°40'713.8
2018-Jun-17 03:00S 27°24' E 153°41'713.1
2018-Jun-17 02:30S 27°30' E 153°42'612.2
2018-Jun-17 02:00S 27°36' E 153°44'612.0
2018-Jun-17 01:30S 27°42' E 153°45'612.6
2018-Jun-17 01:00S 27°48' E 153°45'712.9
2018-Jun-17 00:30S 27°55' E 153°47'612.8
2018-Jun-17 00:00S 28°01' E 153°47'612.5
2018-Jun-16 23:30S 28°07' E 153°47'712.9
2018-Jun-16 23:00S 28°14' E 153°47'25813.7
2018-Jun-16 04:10S 32°26' E 152°41'318.8
2018-Jun-16 04:00S 32°28' E 152°39'918.8
2018-Jun-16 03:30S 32°37' E 152°35'816.0
2018-Jun-16 03:00S 32°45' E 152°32'714.1
2018-Jun-16 02:30S 32°51' E 152°29'714.0
2018-Jun-16 02:00S 32°58' E 152°26'714.1
2018-Jun-16 01:30S 33°04' E 152°22'714.2
2018-Jun-16 01:00S 33°11' E 152°19'914.0
2018-Jun-16 00:21S 33°19' E 152°15'4714.5
2018-Jun-15 21:06S 34°03' E 151°53'114.8
2018-Jun-15 21:00S 34°04' E 151°53'714.6
2018-Jun-15 20:30S 34°11' E 151°50'713.9
2018-Jun-15 20:00S 34°18' E 151°47'  
2018-Jun-13 09:32S 37°49' E 144°55'179 6.3
2018-Jun-12 05:20S 38°29' E 148°37'618.7
2018-Jun-12 05:00S 38°25' E 148°43'918.8
2018-Jun-12 04:30S 38°20' E 148°53'919.1
2018-Jun-12 04:00S 38°15' E 149°03'1019.7
2018-Jun-12 03:30S 38°09' E 149°13'1019.7
2018-Jun-12 02:59S 38°03' E 149°23'1019.3
2018-Jun-12 02:29S 37°58' E 149°34'24117.5
2018-Jun-11 12:42S 34°11' E 151°15'317.9
2018-Jun-11 12:30S 34°07' E 151°15'612.0
2018-Jun-11 12:01S 34°01' E 151°15'4 6.5
2018-Jun-11 11:28S 33°58' E 151°12'  
2018-Jun-09 03:25S 33°58' E 151°12'3 6.9
2018-Jun-09 02:56S 34°01' E 151°15'4 8.5
2018-Jun-09 02:31S 34°01' E 151°19'4 8.1
2018-Jun-09 02:01S 33°57' E 151°22'4 8.5
2018-Jun-09 01:30S 33°54' E 151°25'5 9.2
2018-Jun-09 01:00S 33°50' E 151°28'5 9.0
2018-Jun-09 00:30S 33°46' E 151°31'713.3
2018-Jun-09 00:00S 33°41' E 151°36'3314.7
2018-Jun-08 21:43S 33°13' E 151°58'316.1
2018-Jun-08 21:30S 33°10' E 152°00'815.7
2018-Jun-08 21:00S 33°03' E 152°05'815.4
2018-Jun-08 20:31S 32°57' E 152°11'815.3
2018-Jun-08 20:00S 32°52' E 152°17'714.7
2018-Jun-08 19:31S 32°46' E 152°23'714.8
2018-Jun-08 19:00S 32°40' E 152°28'816.5
2018-Jun-08 18:31S 32°34' E 152°34'816.4
2018-Jun-08 18:01S 32°27' E 152°39'1116.5
2018-Jun-08 17:20S 32°17' E 152°44'  
Track history (hours):
 
Tides and Currents Weather Stations Pressure Air Temp Water Temp Dewpoint Dewpoint Depression Visibility Wind Speed Wind Dir Waves Ship Positions

OOCL Italy

Last reported at 2018-Jun-18 04:58 UTC. Time now 2018-Jun-18 09:37 UTC.
Position S 27°22' E 153°11'.

Length 280 m; draft 11.3 m.

Type: Ship. MMSI: 566748000.

Date/timePositionNaut miles runAvg speedWind from/ knotsBaromVisibWave heightAir tempDewpointWater temp
2018-Jun-18 04:58S 27°22' E 153°11'0 0.0
2018-Jun-18 03:03S 27°22' E 153°11'0 0.0
2018-Jun-18 02:54S 27°22' E 153°11'0 0.0
2018-Jun-17 11:49S 27°22' E 153°11'0 0.5
2018-Jun-17 11:29S 27°22' E 153°11'3 5.9
2018-Jun-17 10:59S 27°19' E 153°12'815.3
2018-Jun-17 10:29S 27°14' E 153°19'816.2
2018-Jun-17 10:00S 27°07' E 153°20'1017.5
2018-Jun-17 09:26S 26°59' E 153°14'716.8
2018-Jun-17 09:00S 26°52' E 153°10'612.2
2018-Jun-17 08:30S 26°47' E 153°12'4 6.7
2018-Jun-17 07:58S 26°43' E 153°12'3 4.8
2018-Jun-17 07:24S 26°43' E 153°15'11 6.9
2018-Jun-17 05:52S 26°49' E 153°25'613.4
2018-Jun-17 05:26S 26°53' E 153°30'1212.6
2018-Jun-17 04:29S 27°04' E 153°35'713.8
2018-Jun-17 04:01S 27°10' E 153°38'714.0
2018-Jun-17 03:30S 27°17' E 153°40'713.8
2018-Jun-17 03:00S 27°24' E 153°41'713.1
2018-Jun-17 02:30S 27°30' E 153°42'612.2
2018-Jun-17 02:00S 27°36' E 153°44'612.0
2018-Jun-17 01:30S 27°42' E 153°45'612.6
2018-Jun-17 01:00S 27°48' E 153°45'712.9
2018-Jun-17 00:30S 27°55' E 153°47'612.8
2018-Jun-17 00:00S 28°01' E 153°47'612.5
2018-Jun-16 23:30S 28°07' E 153°47'712.9
2018-Jun-16 23:00S 28°14' E 153°47'25813.7
2018-Jun-16 04:10S 32°26' E 152°41'318.8
2018-Jun-16 04:00S 32°28' E 152°39'918.8
2018-Jun-16 03:30S 32°37' E 152°35'816.0
2018-Jun-16 03:00S 32°45' E 152°32'714.1
2018-Jun-16 02:30S 32°51' E 152°29'714.0
2018-Jun-16 02:00S 32°58' E 152°26'714.1
2018-Jun-16 01:30S 33°04' E 152°22'714.2
2018-Jun-16 01:00S 33°11' E 152°19'914.0
2018-Jun-16 00:21S 33°19' E 152°15'4714.5
2018-Jun-15 21:06S 34°03' E 151°53'114.8
2018-Jun-15 21:00S 34°04' E 151°53'714.6
2018-Jun-15 20:30S 34°11' E 151°50'713.9
2018-Jun-15 20:00S 34°18' E 151°47'  
2018-Jun-13 09:32S 37°49' E 144°55'179 6.3
2018-Jun-12 05:20S 38°29' E 148°37'618.7
2018-Jun-12 05:00S 38°25' E 148°43'918.8
2018-Jun-12 04:30S 38°20' E 148°53'919.1
2018-Jun-12 04:00S 38°15' E 149°03'1019.7
2018-Jun-12 03:30S 38°09' E 149°13'1019.7
2018-Jun-12 02:59S 38°03' E 149°23'1019.3
2018-Jun-12 02:29S 37°58' E 149°34'24117.5
2018-Jun-11 12:42S 34°11' E 151°15'317.9
2018-Jun-11 12:30S 34°07' E 151°15'612.0
2018-Jun-11 12:01S 34°01' E 151°15'4 6.5
2018-Jun-11 11:28S 33°58' E 151°12'  
2018-Jun-09 03:25S 33°58' E 151°12'3 6.9
2018-Jun-09 02:56S 34°01' E 151°15'4 8.5
2018-Jun-09 02:31S 34°01' E 151°19'4 8.1
2018-Jun-09 02:01S 33°57' E 151°22'4 8.5
2018-Jun-09 01:30S 33°54' E 151°25'5 9.2
2018-Jun-09 01:00S 33°50' E 151°28'5 9.0
2018-Jun-09 00:30S 33°46' E 151°31'713.3
2018-Jun-09 00:00S 33°41' E 151°36'3314.7
2018-Jun-08 21:43S 33°13' E 151°58'316.1
2018-Jun-08 21:30S 33°10' E 152°00'815.7
2018-Jun-08 21:00S 33°03' E 152°05'815.4
2018-Jun-08 20:31S 32°57' E 152°11'815.3
2018-Jun-08 20:00S 32°52' E 152°17'714.7
2018-Jun-08 19:31S 32°46' E 152°23'714.8
2018-Jun-08 19:00S 32°40' E 152°28'816.5
2018-Jun-08 18:31S 32°34' E 152°34'816.4
2018-Jun-08 18:01S 32°27' E 152°39'1116.5
2018-Jun-08 17:20S 32°17' E 152°44'  

Dump ship's entire track history